Terminal Aerodrome Forecast
Issued by NWS Louisville, KY

Home | Current Version | Previous Version | Text Only | Print | Product List | Glossary On
Versions: 1 2 3 4 5 6 7 8 9 10 11 12 13 14 15 16 17 18
675
FTUS43 KLMK 261121
TAFBWG
TAF
KBWG 261121Z 2612/2712 20003KT P6SM FEW200
     FM261500 19009KT P6SM SCT200
     FM270200 20005KT P6SM SCT060 SCT180
     FM270900 20004KT P6SM VCSH BKN035=

USA.gov is the U.S. government's official web portal to all federal, state and local government web resources and services.